Detall de PIREP

Printer-friendly versionPDF version

[2014/09/24 08:42:00]
Flight IATA:CT2201
Pilot Number:044
Company ICAO:CAT
Aircraft Type:B463/A
PAX:92
Aircraft Registration:PAX
Departing Airport: LFOH
Destination Airport: LFMP
Alternate Airport:LFBO
Online: VATSIM
Route:N0450F270 DVL UN859 AMB/N0450F310 UN859 BALAN UN859 BEBIX UN859 GAI/N0350F190 G36 ORBIL
Flight Level:F310
No Slew and time accel
No pause
Crash detect
Detect pilot in Cockpit between each 30 and 45 minutes
08:42 Zero fuel Weight: 75240 Lbs, Fuel Weight: 13421 Lbs
08:42 VATSIM:LFOH 240830Z AUTO 26012KT 6000 SCT017 BKN039 OVC047 15/11 Q1015
08:42 VATSIM:LFMP 240800Z 30003KT 230V340 9999 FEW036 SCT260 19/10 Q1016 NOSIG
08:42 Parking Brakes off
08:55 Take-off
08:55 Take off Weight: 88120 Lbs
08:55 Wind: 264º @ 012 Knots Heading: 227º
08:55 POS N49º 31´ 57´´ E000º 05´ 09´´
08:55 Flaps:1 at 154 Knots
08:55 Gear Up: 154 Knots
08:55 Flaps:0 at 150 Knots
09:10 Wind:270º@025 Knots Heading: 175º Ground Speed: 285 Knots Altitude 24120 ft
09:13 TOC
09:13 Fuel Weight: 10554 Lb
09:25 Wind:329º@013 Knots Heading: 189º Ground Speed: 377 Knots Altitude 31112 ft
09:40 Wind:182º@007 Knots Heading: 173º Ground Speed: 395 Knots Altitude 31095 ft
09:48 TOD
09:48 Fuel Weight: 7795 Lb
09:55 Wind:286º@026 Knots Heading: 158º Ground Speed: 352 Knots Altitude 19258 ft
10:10 Wind:304º@019 Knots Heading: 125º Ground Speed: 209 Knots Altitude 3507 ft
10:16 Flaps:1 at 161 Knots
10:18 Flaps:2 at 149 Knots
10:21 Flaps:3 at 147 Knots
10:21 Gear Down: 145 Knots
10:22 Flaps:4 at 134 Knots
10:25 Wind:312º@014 Knots Heading: 320º Ground Speed: 110 Knots Altitude 209 ft
10:25 TouchDown:Rate -645 ft/min Speed: 111 Knots
10:25 VATSIM:LFMP 241000Z 31014KT 9999 FEW050 22/10 Q1016 NOSIG
10:25 Land
10:25 Wind:312º@014 Knots
10:25 Heading: 328º
10:25 Flight Duration: 01:30
10:25 Landing Weight: 81392 Lbs
10:25 POS N42º 44´ 44´´ E002º 52´ 06´´
10:29 Parking brakes on
10:29 Block to Block Duration: 01:47
10:29 Final Fuel: 6003 Lbls
10:29 Spent Fuel: 7418 Lbls
10:29 Flight Length: 462 NM
10:29 TOD Land Length: 153 NM

Exportar CSV

Powered by Drupal - Modified by Danger4k